Time;durP1;ratioP1;P1;durP2;ratioP2;P2;SDS_P1;SDS_P2;PMS_P1;PMS_P2;Temp;Humidity;BMP_temperature;BMP_pressure;BME280_temperature;BME280_humidity;BME280_pressure;Samples;Min_cycle;Max_cycle;Signal;HPM_P1;HPM_P2
2022/01/08 00:00:51;;;;;;;7.90;4.82;;;;;;;2.10;100.00;100062.97;5252378;28;20029;-76
2022/01/08 00:03:21;;;;;;;7.38;4.60;;;;;;;2.01;100.00;100065.66;5243455;28;20250;-79
2022/01/08 00:05:53;;;;;;;6.80;4.85;;;;;;;1.96;100.00;100067.44;5242334;28;20120;-78
2022/01/08 00:08:24;;;;;;;8.18;4.50;;;;;;;2.00;100.00;100058.81;5242720;28;20066;-78
2022/01/08 00:10:54;;;;;;;8.35;5.40;;;;;;;1.95;100.00;100064.00;5251966;28;20030;-78
2022/01/08 00:13:25;;;;;;;11.15;5.95;;;;;;;1.94;100.00;100048.53;5231287;28;20032;-78
2022/01/08 00:15:55;;;;;;;15.57;6.40;;;;;;;1.92;100.00;100055.44;5254535;28;20059;-78
2022/01/08 00:18:25;;;;;;;13.90;6.13;;;;;;;1.91;100.00;100046.00;5231538;28;20068;-78
2022/01/08 00:20:56;;;;;;;12.50;6.53;;;;;;;1.97;100.00;100053.69;5255082;28;20644;-78
2022/01/08 00:23:26;;;;;;;10.50;5.85;;;;;;;2.01;100.00;100060.50;5230938;28;20466;-78
2022/01/08 00:25:58;;;;;;;12.90;5.63;;;;;;;1.99;100.00;100047.63;5255598;28;20108;-77
2022/01/08 00:28:29;;;;;;;14.18;5.65;;;;;;;2.14;100.00;100052.63;5251502;28;20055;-79
2022/01/08 00:30:59;;;;;;;10.93;5.93;;;;;;;2.19;100.00;100062.91;5248330;28;20036;-78
2022/01/08 00:33:29;;;;;;;11.10;5.82;;;;;;;2.35;100.00;100061.88;5254937;28;20116;-78
2022/01/08 00:35:59;;;;;;;12.43;5.82;;;;;;;2.30;100.00;100058.50;5254723;28;20036;-79
2022/01/08 00:38:30;;;;;;;9.88;5.82;;;;;;;2.29;100.00;100047.31;5250750;28;20453;-79
2022/01/08 00:41:00;;;;;;;9.60;5.82;;;;;;;2.19;100.00;100042.28;5230703;28;20453;-78
2022/01/08 00:43:30;;;;;;;9.50;6.18;;;;;;;2.15;100.00;100050.91;5251192;28;20024;-77
2022/01/08 00:46:01;;;;;;;10.55;6.30;;;;;;;2.11;100.00;100044.06;5255072;28;20032;-78
2022/01/08 00:48:31;;;;;;;8.52;5.80;;;;;;;2.15;100.00;100045.75;5233375;28;20029;-78
2022/01/08 00:51:01;;;;;;;10.30;6.30;;;;;;;2.22;100.00;100044.81;5248686;28;20051;-78
2022/01/08 00:53:32;;;;;;;7.70;5.30;;;;;;;2.19;100.00;100039.69;5254157;28;20035;-78
2022/01/08 00:56:03;;;;;;;9.98;6.07;;;;;;;2.25;100.00;100039.63;5237439;28;20434;-79
2022/01/08 00:58:33;;;;;;;9.52;5.45;;;;;;;2.31;100.00;100031.84;5247151;28;20108;-78
2022/01/08 01:01:03;;;;;;;7.85;5.50;;;;;;;2.19;100.00;100045.69;5229083;28;20115;-78
2022/01/08 01:03:34;;;;;;;9.48;5.72;;;;;;;2.32;100.00;100047.28;5250716;28;20027;-78
2022/01/08 01:06:06;;;;;;;10.45;5.93;;;;;;;2.29;100.00;100042.16;5228794;28;20082;-78
2022/01/08 01:08:36;;;;;;;9.60;5.63;;;;;;;2.18;100.00;100043.16;5248916;28;20028;-78
2022/01/08 01:11:07;;;;;;;7.50;5.40;;;;;;;2.15;100.00;100044.03;5232614;28;20024;-78
2022/01/08 01:13:37;;;;;;;11.43;5.75;;;;;;;2.13;100.00;100039.78;5252500;28;20035;-76
2022/01/08 01:16:08;;;;;;;9.70;6.28;;;;;;;2.04;100.00;100034.72;5257086;28;20039;-78
2022/01/08 01:18:38;;;;;;;11.18;5.60;;;;;;;2.03;100.00;100040.72;5238834;28;20119;-78
2022/01/08 01:21:09;;;;;;;9.07;5.50;;;;;;;1.96;100.00;100039.94;5228625;28;20025;-79
2022/01/08 01:23:42;;;;;;;9.43;5.13;;;;;;;2.00;100.00;100036.44;5242099;28;20501;-77
2022/01/08 01:26:18;;;;;;;7.65;4.55;;;;;;;2.00;100.00;100031.28;5241684;28;20059;-78
2022/01/08 01:28:56;;;;;;;;;;;;;;;1.96;100.00;100026.22;5260904;28;20036;-79
2022/01/08 01:42:51;;;;;;;5.68;3.60;;;;;;;2.10;100.00;100021.75;5260356;28;20035;-78
2022/01/08 01:48:03;;;;;;;6.47;3.80;;;;;;;2.07;100.00;100021.78;5261696;28;20065;-77
2022/01/08 01:50:33;;;;;;;5.05;3.20;;;;;;;2.10;100.00;100009.72;5263098;28;20127;-78
2022/01/08 01:53:03;;;;;;;5.72;3.53;;;;;;;2.08;100.00;100015.75;5238912;28;20167;-77
2022/01/08 01:55:34;;;;;;;5.60;3.50;;;;;;;2.04;100.00;100016.66;5255653;28;20044;-77
2022/01/08 01:58:06;;;;;;;5.65;3.30;;;;;;;2.05;100.00;100013.22;5236334;28;20023;-78
2022/01/08 02:00:37;;;;;;;4.63;3.20;;;;;;;1.99;100.00;100013.28;5238819;28;20390;-77
2022/01/08 02:03:07;;;;;;;4.80;3.47;;;;;;;2.05;100.00;100013.22;5259845;28;20435;-77
2022/01/08 02:05:37;;;;;;;6.13;3.15;;;;;;;2.00;100.00;100017.56;5243002;28;20059;-78
2022/01/08 02:08:09;;;;;;;6.53;3.20;;;;;;;2.07;100.00;100004.63;5268850;28;20023;-77
2022/01/08 02:10:40;;;;;;;5.53;3.40;;;;;;;2.04;100.00;100014.09;5258105;28;20402;-77
2022/01/08 02:13:19;;;;;;;6.22;3.83;;;;;;;2.03;100.00;100018.38;5244258;28;20028;-77
2022/01/08 02:15:52;;;;;;;7.68;4.25;;;;;;;2.06;100.00;100022.66;5251829;28;20153;-77
2022/01/08 02:18:25;;;;;;;7.75;4.30;;;;;;;2.11;100.00;100023.44;5233937;28;20051;-76
2022/01/08 02:20:58;;;;;;;7.53;4.20;;;;;;;2.15;100.00;100026.00;5233060;28;20077;-77
2022/01/08 02:23:30;;;;;;;7.78;4.18;;;;;;;2.33;100.00;100022.38;5251205;28;20033;-77
2022/01/08 02:26:06;;;;;;;7.70;4.13;;;;;;;2.38;100.00;100012.84;5251914;28;20040;-77
2022/01/08 02:28:37;;;;;;;8.25;4.10;;;;;;;2.30;100.00;100012.94;5262835;28;20043;-77
2022/01/08 02:31:19;;;;;;;8.82;4.45;;;;;;;2.44;100.00;100020.50;5247448;28;20036;-78
2022/01/08 02:33:50;;;;;;;8.30;4.13;;;;;;;2.31;100.00;100009.47;5240177;28;20032;-78
2022/01/08 02:36:20;;;;;;;8.32;4.45;;;;;;;2.24;100.00;100019.88;5231873;28;20587;-77
2022/01/08 02:38:50;;;;;;;8.88;4.60;;;;;;;2.25;100.00;100017.28;5250971;28;20114;-77
2022/01/08 02:41:21;;;;;;;6.78;4.50;;;;;;;2.28;100.00;100013.81;5261204;28;20047;-78
2022/01/08 02:43:53;;;;;;;10.27;4.60;;;;;;;2.34;100.00;100011.19;5242679;28;20040;-76
2022/01/08 02:46:23;;;;;;;6.07;4.05;;;;;;;2.29;100.00;100018.09;5261493;28;20043;-77
2022/01/08 02:48:54;;;;;;;8.45;4.72;;;;;;;2.18;100.00;100017.38;5241923;28;20393;-78
2022/01/08 02:51:24;;;;;;;6.43;3.83;;;;;;;2.18;100.00;100019.97;5257919;28;20538;-77
2022/01/08 02:53:55;;;;;;;8.88;4.03;;;;;;;2.08;100.00;100021.78;5258197;28;20024;-77
2022/01/08 02:56:25;;;;;;;5.80;3.53;;;;;;;2.06;100.00;100022.66;5257900;28;20036;-78
2022/01/08 02:58:55;;;;;;;7.32;4.10;;;;;;;2.06;100.00;100017.50;5261048;28;20549;-78
2022/01/08 03:01:26;;;;;;;6.38;3.95;;;;;;;1.97;100.00;100017.63;5255225;28;20052;-78
2022/01/08 03:03:57;;;;;;;6.78;4.55;;;;;;;1.91;100.00;100017.66;5248043;28;20035;-78
2022/01/08 03:06:27;;;;;;;7.65;4.30;;;;;;;1.82;100.00;100026.31;5245901;28;20025;-78
2022/01/08 03:08:58;;;;;;;7.18;4.28;;;;;;;1.83;100.00;100019.47;5246159;28;20032;-78
2022/01/08 03:11:28;;;;;;;6.30;3.80;;;;;;;1.77;100.00;100009.22;5235206;28;20135;-77
2022/01/08 03:13:59;;;;;;;5.63;3.88;;;;;;;1.77;100.00;100011.78;5257465;28;20028;-77
2022/01/08 03:16:29;;;;;;;6.45;4.18;;;;;;;1.80;100.00;100022.09;5257875;28;20025;-78
2022/01/08 03:19:08;;;;;;;7.35;4.03;;;;;;;1.82;100.00;100020.34;5256621;28;20031;-78
2022/01/08 03:21:42;;;;;;;5.57;3.75;;;;;;;1.80;100.00;100014.34;5258187;28;20435;-77
2022/01/08 03:24:24;;;;;;;6.70;4.05;;;;;;;1.67;100.00;100014.47;5248106;28;20083;-77
2022/01/08 03:26:55;;;;;;;6.80;4.00;;;;;;;1.64;100.00;100007.63;5249747;28;20035;-77
2022/01/08 03:29:26;;;;;;;8.80;3.97;;;;;;;1.69;100.00;100012.72;5245126;28;20021;-79
2022/01/08 03:31:56;;;;;;;5.93;4.00;;;;;;;1.62;100.00;100013.66;5230741;28;20359;-78
2022/01/08 03:34:27;;;;;;;6.85;3.92;;;;;;;1.49;100.00;100014.63;5230716;28;20021;-78
2022/01/08 03:36:57;;;;;;;7.40;3.85;;;;;;;1.47;100.00;100013.78;5248283;28;20024;-78
2022/01/08 03:39:27;;;;;;;7.72;4.05;;;;;;;1.49;100.00;100018.06;5247307;28;20028;-78
2022/01/08 03:41:58;;;;;;;6.65;4.07;;;;;;;1.52;100.00;100017.16;5251011;28;20039;-78
2022/01/08 03:44:29;;;;;;;7.95;4.72;;;;;;;1.54;100.00;100021.44;5250731;28;20406;-78
2022/01/08 03:47:22;;;;;;;9.73;4.93;;;;;;;1.49;100.00;100024.91;5255599;28;20085;-77
2022/01/08 03:49:50;;;;;;;8.43;4.97;;;;;;;1.55;100.00;100019.75;5254694;28;20039;-78
2022/01/08 03:52:20;;;;;;;9.85;5.13;;;;;;;1.59;100.00;100013.69;5234028;28;20041;-78
2022/01/08 03:54:50;;;;;;;9.13;5.28;;;;;;;1.68;100.00;100013.59;5253809;28;20028;-79
2022/01/08 03:57:21;;;;;;;9.35;5.75;;;;;;;1.76;100.00;100020.38;5235764;28;20589;-78
2022/01/08 03:59:51;;;;;;;13.95;8.20;;;;;;;1.85;100.00;100020.31;5245504;28;20032;-78
2022/01/08 04:02:21;;;;;;;10.30;6.97;;;;;;;1.86;100.00;100024.59;5255448;28;20292;-78
2022/01/08 04:04:51;;;;;;;10.80;6.65;;;;;;;1.89;100.00;100017.69;5257171;28;20043;-78
2022/01/08 04:07:22;;;;;;;21.55;9.95;;;;;;;1.85;100.00;100018.56;5257045;28;20377;-77
2022/01/08 04:09:52;;;;;;;20.58;11.27;;;;;;;1.96;100.00;100028.78;5250459;28;20040;-78
2022/01/08 04:12:33;;;;;;;18.17;9.07;;;;;;;1.96;100.00;100033.94;5256217;28;20032;-78
2022/01/08 04:15:08;;;;;;;16.58;8.27;;;;;;;2.01;100.00;100029.59;5255517;28;20020;-78
2022/01/08 04:17:38;;;;;;;12.88;7.72;;;;;;;2.02;100.00;100026.97;5238029;28;20024;-77
2022/01/08 04:20:09;;;;;;;12.00;7.80;;;;;;;2.02;100.00;100023.56;5254070;28;20031;-78
2022/01/08 04:22:39;;;;;;;12.98;7.43;;;;;;;2.31;100.00;100030.09;5258768;28;20354;-78
2022/01/08 04:25:10;;;;;;;12.77;7.65;;;;;;;2.33;100.00;100027.53;5254316;28;20024;-78
2022/01/08 04:27:41;;;;;;;12.40;7.40;;;;;;;2.36;100.00;100024.91;5250812;28;20028;-78
2022/01/08 04:30:11;;;;;;;12.02;7.07;;;;;;;2.34;100.00;100024.91;5257687;28;20109;-78
2022/01/08 04:32:42;;;;;;;12.82;7.10;;;;;;;2.38;100.00;100025.72;5236698;28;20051;-78
2022/01/08 04:35:12;;;;;;;12.40;7.45;;;;;;;2.44;100.00;100025.66;5245889;28;20064;-78
2022/01/08 04:37:42;;;;;;;11.70;6.95;;;;;;;2.41;100.00;100028.28;5242218;28;20145;-78
2022/01/08 04:40:13;;;;;;;11.63;6.80;;;;;;;2.47;100.00;100025.63;5250827;28;20070;-79
2022/01/08 04:42:43;;;;;;;15.48;7.28;;;;;;;2.46;100.00;100018.75;5257141;28;20020;-78
2022/01/08 04:45:13;;;;;;;11.85;7.15;;;;;;;2.47;100.00;100016.16;5231884;28;20029;-78
2022/01/08 04:47:44;;;;;;;11.75;6.60;;;;;;;2.40;100.00;100016.25;5256244;28;20031;-78
2022/01/08 04:50:14;;;;;;;11.82;6.53;;;;;;;2.40;100.00;100024.00;5254484;28;20048;-79
2022/01/08 04:52:44;;;;;;;11.60;7.03;;;;;;;2.41;100.00;100020.53;5258605;28;20179;-78
2022/01/08 04:55:15;;;;;;;10.52;7.22;;;;;;;2.37;100.00;100026.59;5254819;28;20090;-78
2022/01/08 04:57:46;;;;;;;14.73;7.20;;;;;;;2.38;100.00;100018.88;5256464;28;20036;-78
2022/01/08 05:00:19;;;;;;;13.43;7.15;;;;;;;2.40;100.00;100019.69;5256853;28;20042;-78
2022/01/08 05:02:49;;;;;;;12.60;7.28;;;;;;;2.36;100.00;100019.75;5245893;28;20115;-77
2022/01/08 05:05:20;;;;;;;11.13;7.97;;;;;;;2.43;100.00;100016.22;5246142;28;20287;-79
2022/01/08 05:07:50;;;;;;;11.18;7.32;;;;;;;2.40;100.00;100018.84;5241299;28;20063;-78
2022/01/08 05:10:21;;;;;;;13.20;8.00;;;;;;;2.39;100.00;100022.28;5249916;28;20083;-77
2022/01/08 05:12:51;;;;;;;11.20;7.28;;;;;;;2.43;100.00;100023.94;5255265;28;20088;-77
2022/01/08 05:15:21;;;;;;;14.50;7.63;;;;;;;2.47;100.00;100025.63;5254503;28;20032;-77
2022/01/08 05:17:54;;;;;;;10.80;7.25;;;;;;;2.53;100.00;100030.72;5256132;28;20032;-77
2022/01/08 05:20:30;;;;;;;11.38;7.03;;;;;;;2.51;100.00;100043.59;5257963;28;20107;-77
2022/01/08 05:23:02;;;;;;;12.48;7.45;;;;;;;2.55;100.00;100039.28;5258000;28;20036;-77
2022/01/08 05:25:33;;;;;;;13.38;8.05;;;;;;;2.54;100.00;100042.72;5259421;28;20024;-77
2022/01/08 05:28:03;;;;;;;16.02;7.50;;;;;;;2.49;100.00;100035.03;5258973;28;20145;-77
2022/01/08 05:30:34;;;;;;;12.32;7.70;;;;;;;2.43;100.00;100042.00;5256914;28;20295;-78
2022/01/08 05:33:04;;;;;;;11.40;7.28;;;;;;;2.44;100.00;100048.84;5248553;28;20036;-77
2022/01/08 05:35:34;;;;;;;10.32;7.22;;;;;;;2.42;100.00;100045.44;5228806;28;20062;-76
2022/01/08 05:38:05;;;;;;;12.60;7.88;;;;;;;2.45;100.00;100054.00;5244486;28;20036;-77
2022/01/08 05:40:35;;;;;;;16.98;8.07;;;;;;;2.46;100.00;100049.69;5254474;28;20103;-77
2022/01/08 05:43:05;;;;;;;11.02;7.05;;;;;;;2.44;100.00;100051.44;5256931;28;20360;-77
2022/01/08 05:45:36;;;;;;;11.60;7.43;;;;;;;2.47;100.00;100054.00;5238527;28;20127;-78
2022/01/08 05:48:07;;;;;;;10.65;7.25;;;;;;;2.45;100.00;100058.28;5233466;28;20032;-77
2022/01/08 05:50:37;;;;;;;12.20;7.68;;;;;;;2.43;100.00;100062.63;5255964;28;20047;-77
2022/01/08 05:53:07;;;;;;;14.45;7.15;;;;;;;2.58;100.00;100059.88;5234297;28;20040;-78
2022/01/08 05:55:38;;;;;;;13.10;7.97;;;;;;;2.52;100.00;100071.09;5258824;28;20036;-77
2022/01/08 05:58:08;;;;;;;10.93;7.03;;;;;;;2.51;100.00;100063.41;5261532;28;20035;-77
2022/01/08 06:00:38;;;;;;;11.98;6.97;;;;;;;2.48;100.00;100068.59;5240803;28;20074;-77
2022/01/08 06:03:09;;;;;;;12.18;7.20;;;;;;;2.44;100.00;100072.94;5250021;28;20188;-77
2022/01/08 06:05:39;;;;;;;11.65;7.20;;;;;;;2.45;100.00;100074.63;5249598;28;20035;-77
2022/01/08 06:08:10;;;;;;;15.55;8.55;;;;;;;2.51;100.00;100084.03;5256817;28;20558;-77
2022/01/08 06:10:40;;;;;;;13.90;8.07;;;;;;;2.49;100.00;100076.31;5241286;28;20029;-77
2022/01/08 06:13:11;;;;;;;15.88;8.07;;;;;;;2.54;100.00;100084.81;5249202;28;20032;-77
2022/01/08 06:15:41;;;;;;;15.90;8.38;;;;;;;2.49;100.00;100088.34;5263201;28;20042;-77
2022/01/08 06:18:11;;;;;;;13.45;8.60;;;;;;;2.57;100.00;100082.25;5259327;28;20478;-77
2022/01/08 06:20:42;;;;;;;14.80;8.25;;;;;;;2.66;100.00;100089.00;5262211;28;20016;-77
2022/01/08 06:23:12;;;;;;;14.68;8.32;;;;;;;2.55;100.00;100085.69;5229353;28;20032;-77
2022/01/08 06:25:43;;;;;;;16.98;8.90;;;;;;;2.48;100.00;100095.22;5257618;28;20036;-78
2022/01/08 06:28:13;;;;;;;16.15;9.40;;;;;;;2.54;100.00;100099.47;5255515;28;20032;-77
2022/01/08 06:30:43;;;;;;;15.20;9.20;;;;;;;2.57;100.00;100099.41;5255181;28;20032;-77
2022/01/08 06:33:15;;;;;;;14.00;8.30;;;;;;;2.51;100.00;100100.34;5254441;28;20052;-78
2022/01/08 06:35:46;;;;;;;14.57;8.80;;;;;;;2.55;100.00;100101.16;5225604;28;20031;-77
2022/01/08 06:38:16;;;;;;;16.17;9.55;;;;;;;2.57;100.00;100099.41;5233453;28;20020;-77
2022/01/08 06:40:46;;;;;;;15.68;9.35;;;;;;;2.53;100.00;100098.59;5248097;28;20028;-77
2022/01/08 06:43:17;;;;;;;16.25;9.65;;;;;;;2.52;100.00;100102.03;5255462;28;20020;-77
2022/01/08 06:45:47;;;;;;;15.68;8.90;;;;;;;2.45;100.00;100109.84;5257197;28;20036;-77
2022/01/08 06:48:17;;;;;;;16.63;9.60;;;;;;;2.42;100.00;100109.91;5250883;28;20455;-77
2022/01/08 06:50:48;;;;;;;16.95;9.48;;;;;;;2.36;100.00;100117.72;5249674;28;20037;-77
2022/01/08 06:53:18;;;;;;;16.83;9.18;;;;;;;2.46;100.00;100109.00;5231987;28;20173;-77
2022/01/08 06:55:48;;;;;;;18.70;8.75;;;;;;;2.36;100.00;100115.97;5250470;28;20578;-77
2022/01/08 06:58:20;;;;;;;15.80;8.65;;;;;;;2.30;100.00;100121.19;5256866;28;20051;-78
2022/01/08 07:00:50;;;;;;;17.98;8.85;;;;;;;2.20;100.00;100129.03;5239051;28;20035;-77
2022/01/08 07:03:21;;;;;;;17.65;9.52;;;;;;;2.28;100.00;100132.38;5249031;28;20040;-78
2022/01/08 07:05:51;;;;;;;15.40;8.98;;;;;;;2.24;100.00;100130.72;5248216;28;20036;-77
2022/01/08 07:08:21;;;;;;;17.50;9.55;;;;;;;2.18;100.00;100131.63;5229113;28;20430;-77
2022/01/08 07:10:52;;;;;;;16.52;9.18;;;;;;;2.19;100.00;100143.63;5257349;28;20119;-77
2022/01/08 07:13:22;;;;;;;14.57;8.70;;;;;;;2.19;100.00;100146.22;5259188;28;20032;-77
2022/01/08 07:15:52;;;;;;;20.58;10.85;;;;;;;2.22;100.00;100143.63;5240741;28;20363;-77
2022/01/08 07:18:22;;;;;;;19.08;10.05;;;;;;;2.27;100.00;100146.13;5260034;28;20474;-78
2022/01/08 07:20:54;;;;;;;20.17;10.25;;;;;;;2.24;100.00;100151.31;5260066;28;20024;-77
2022/01/08 07:23:25;;;;;;;17.52;10.27;;;;;;;2.37;100.00;100158.91;5259608;28;20360;-77
2022/01/08 07:25:55;;;;;;;22.13;11.10;;;;;;;2.33;100.00;100151.25;5259581;28;20178;-77
2022/01/08 07:28:25;;;;;;;19.00;10.60;;;;;;;2.39;100.00;100156.34;5258887;28;20024;-77
2022/01/08 07:30:55;;;;;;;16.33;10.05;;;;;;;2.48;100.00;100159.69;5272602;22;20056;-80
2022/01/08 07:33:26;;;;;;;19.95;10.85;;;;;;;2.45;100.00;100161.44;5227314;28;20061;-80
2022/01/08 07:35:56;;;;;;;20.05;11.32;;;;;;;2.49;100.00;100165.72;5257769;28;20028;-80
2022/01/08 07:38:26;;;;;;;18.67;11.02;;;;;;;2.67;100.00;100160.34;5240198;28;20107;-80
2022/01/08 07:40:57;;;;;;;18.45;10.60;;;;;;;2.50;100.00;100159.69;5252691;28;20526;-80
2022/01/08 07:43:27;;;;;;;19.67;10.23;;;;;;;2.55;100.00;100145.88;5247737;28;20024;-80
2022/01/08 07:45:58;;;;;;;19.52;10.73;;;;;;;2.59;100.00;100159.56;5228970;28;20020;-80
2022/01/08 07:48:28;;;;;;;18.23;10.32;;;;;;;2.49;100.00;100158.81;5228195;28;20115;-80
2022/01/08 07:50:59;;;;;;;19.85;10.30;;;;;;;2.42;100.00;100158.88;5252810;28;20028;-80
2022/01/08 07:53:30;;;;;;;24.35;10.32;;;;;;;2.41;100.00;100157.19;5234440;28;20189;-80
2022/01/08 07:56:00;;;;;;;22.00;10.95;;;;;;;2.40;100.00;100155.47;5231496;28;20036;-80
2022/01/08 07:58:30;;;;;;;19.95;10.32;;;;;;;2.41;100.00;100149.44;5246778;28;20033;-80
2022/01/08 08:01:01;;;;;;;19.13;10.07;;;;;;;2.43;100.00;100158.88;5252002;28;20028;-80
2022/01/08 08:03:31;;;;;;;18.55;10.18;;;;;;;2.49;100.00;100148.50;5253184;28;20404;-80
2022/01/08 08:06:01;;;;;;;18.60;10.18;;;;;;;2.43;100.00;100150.28;5252106;28;20031;-80
2022/01/08 08:08:32;;;;;;;18.88;10.30;;;;;;;2.49;100.00;100140.75;5226071;28;20028;-80
2022/01/08 08:11:02;;;;;;;20.52;9.95;;;;;;;2.37;100.00;100143.44;5250777;28;20025;-80
2022/01/08 08:13:32;;;;;;;19.75;9.82;;;;;;;2.38;100.00;100134.00;5257266;28;20035;-80
2022/01/08 08:16:03;;;;;;;21.33;10.63;;;;;;;2.49;100.00;100130.44;5257085;28;20154;-80
2022/01/08 08:18:33;;;;;;;19.75;10.50;;;;;;;2.43;100.00;100132.22;5255781;28;20056;-81
2022/01/08 08:21:04;;;;;;;20.95;11.20;;;;;;;2.47;100.00;100123.63;5247036;28;20024;-80
2022/01/08 08:23:34;;;;;;;16.00;9.77;;;;;;;2.43;100.00;100133.09;5229261;28;20028;-80
2022/01/08 08:26:04;;;;;;;17.83;9.63;;;;;;;2.38;100.00;100131.44;5229464;28;20032;-80
2022/01/08 08:28:35;;;;;;;20.00;10.45;;;;;;;2.52;100.00;100125.25;5236962;28;20578;-80
2022/01/08 08:31:05;;;;;;;16.52;9.13;;;;;;;2.57;100.00;100126.09;5250143;28;20020;-80
2022/01/08 08:33:35;;;;;;;18.02;9.40;;;;;;;2.60;100.00;100126.03;5258728;28;20500;-80
2022/01/08 08:36:06;;;;;;;18.20;8.88;;;;;;;2.65;100.00;100123.41;5257355;28;20032;-80
2022/01/08 08:38:36;;;;;;;18.20;9.18;;;;;;;2.69;100.00;100119.94;5233972;28;20410;-80
2022/01/08 08:41:07;;;;;;;13.82;8.32;;;;;;;2.71;100.00;100123.34;5231427;28;20032;-80
2022/01/08 08:43:37;;;;;;;16.23;9.05;;;;;;;2.63;100.00;100114.81;5249018;28;20516;-80
2022/01/08 08:46:07;;;;;;;17.42;8.95;;;;;;;2.63;100.00;100118.25;5228794;28;20089;-80
2022/01/08 08:48:38;;;;;;;19.77;8.85;;;;;;;2.77;100.00;100118.09;5229090;28;20108;-80
2022/01/08 08:51:08;;;;;;;16.60;8.52;;;;;;;2.72;100.00;100114.72;5228683;28;20047;-80
2022/01/08 08:53:38;;;;;;;19.13;9.15;;;;;;;2.62;100.00;100113.09;5246872;28;20033;-80
2022/01/08 08:56:09;;;;;;;14.25;8.25;;;;;;;2.61;100.00;100112.28;5246941;28;20103;-81
2022/01/08 08:58:39;;;;;;;15.13;8.60;;;;;;;2.64;100.00;100111.38;5251884;28;20035;-80
2022/01/08 09:01:09;;;;;;;19.95;9.00;;;;;;;2.78;100.00;100112.94;5252473;28;20027;-80
2022/01/08 09:03:40;;;;;;;16.95;9.20;;;;;;;2.91;100.00;100113.63;5258833;28;20062;-80
2022/01/08 09:06:10;;;;;;;19.35;9.15;;;;;;;2.79;100.00;100112.06;5258337;28;20077;-80
2022/01/08 09:08:40;;;;;;;18.45;8.63;;;;;;;2.99;100.00;100117.81;5248297;28;20032;-80
2022/01/08 09:11:10;;;;;;;16.27;8.45;;;;;;;3.15;100.00;100121.03;5250929;28;20552;-80
2022/01/08 09:13:41;;;;;;;16.85;8.50;;;;;;;3.17;100.00;100124.50;5248888;28;20044;-80
2022/01/08 09:16:12;;;;;;;17.42;8.10;;;;;;;3.13;100.00;100117.63;5247695;28;20066;-80
2022/01/08 09:18:42;;;;;;;18.42;8.77;;;;;;;3.42;100.00;100112.94;5231168;28;20039;-80
2022/01/08 09:21:14;;;;;;;14.40;7.93;;;;;;;3.57;100.00;100121.31;5228846;28;20042;-80
2022/01/08 09:23:44;;;;;;;17.50;7.82;;;;;;;3.63;100.00;100110.91;5243450;28;20347;-80
2022/01/08 09:26:14;;;;;;;15.95;7.85;;;;;;;3.53;100.00;100117.06;5259909;28;21023;-80
2022/01/08 09:28:45;;;;;;;16.38;8.18;;;;;;;3.73;100.00;100117.59;5236011;28;20111;-80
2022/01/08 09:31:18;;;;;;;18.60;8.63;;;;;;;3.64;100.00;100113.44;5231103;28;20020;-80
2022/01/08 09:33:49;;;;;;;16.58;8.43;;;;;;;3.73;100.00;100115.03;5239449;28;20032;-80
2022/01/08 09:36:19;;;;;;;15.73;8.45;;;;;;;3.63;100.00;100106.56;5230156;28;20573;-81
2022/01/08 09:38:50;;;;;;;15.98;8.18;;;;;;;3.71;100.00;100102.16;5231174;28;20086;-82
2022/01/08 09:41:21;;;;;;;19.98;8.32;;;;;;;3.73;100.00;100091.78;5237691;28;20694;-81
2022/01/08 09:43:51;;;;;;;18.83;8.73;;;;;;;3.83;100.00;100098.50;5239814;28;20038;-81
2022/01/08 09:46:21;;;;;;;19.90;8.30;;;;;;;3.85;100.00;100095.03;5232474;28;20033;-81
2022/01/08 09:48:52;;;;;;;19.33;8.23;;;;;;;3.62;100.00;100101.44;5231006;28;20086;-82
2022/01/08 09:51:22;;;;;;;17.95;8.43;;;;;;;3.75;100.00;100103.81;5231646;28;20020;-81
2022/01/08 09:53:54;;;;;;;16.27;7.80;;;;;;;3.94;100.00;100100.03;5236594;28;20027;-81
2022/01/08 09:56:25;;;;;;;18.08;8.35;;;;;;;3.85;100.00;100096.75;5237358;28;20092;-81
2022/01/08 09:58:56;;;;;;;18.63;7.65;;;;;;;3.77;100.00;100089.13;5241994;28;20032;-81
2022/01/08 10:01:29;;;;;;;14.98;7.57;;;;;;;3.91;100.00;100101.81;5256105;28;20070;-81
2022/01/08 10:04:02;;;;;;;17.92;8.13;;;;;;;4.11;100.00;100103.19;5259946;28;20073;-81
2022/01/08 10:06:35;;;;;;;15.25;8.15;;;;;;;3.97;100.00;100102.56;5239294;28;20774;-81
2022/01/08 10:09:06;;;;;;;13.45;7.80;;;;;;;4.02;100.00;100095.59;5234520;28;20058;-82
2022/01/08 10:11:37;;;;;;;18.05;8.52;;;;;;;4.18;100.00;100099.63;5258047;28;20068;-81
2022/01/08 10:14:15;;;;;;;16.23;8.00;;;;;;;4.02;100.00;100100.78;5244897;28;20027;-81
2022/01/08 10:19:37;;;;;;;16.92;8.02;;;;;;;3.80;100.00;100104.56;5256669;28;20482;-82
2022/01/08 10:22:24;;;;;;;17.80;8.10;;;;;;;3.95;100.00;100087.97;5230261;28;20028;-81
2022/01/08 10:25:13;;;;;;;15.35;7.32;;;;;;;4.11;100.00;100098.03;5235632;28;20032;-82
2022/01/08 10:27:44;;;;;;;14.77;8.13;;;;;;;4.27;100.00;100090.88;5237817;28;20029;-80
2022/01/08 10:30:32;;;;;;;18.30;8.13;;;;;;;4.40;100.00;100090.59;5242936;28;20036;-81
2022/01/08 10:33:03;;;;;;;14.32;7.88;;;;;;;4.51;100.00;100087.81;5253156;28;20567;-80
2022/01/08 10:35:59;;;;;;;16.55;7.22;;;;;;;4.36;100.00;100096.72;5253842;28;20104;-81
2022/01/08 10:38:30;;;;;;;15.77;7.40;;;;;;;4.44;100.00;100088.81;5245057;28;20051;-81
2022/01/08 10:41:02;;;;;;;14.57;7.72;;;;;;;4.43;100.00;100087.94;5234971;28;20032;-81
2022/01/08 10:43:33;;;;;;;15.52;8.10;;;;;;;4.46;100.00;100092.22;5229784;28;20064;-81
2022/01/08 10:46:15;;;;;;;16.50;7.45;;;;;;;4.49;100.00;100092.16;5252267;28;20075;-81
2022/01/08 10:48:48;;;;;;;16.05;7.22;;;;;;;4.48;100.00;100075.78;5231941;28;20048;-81
2022/01/08 10:51:25;;;;;;;17.65;7.63;;;;;;;4.38;100.00;100079.44;5246985;28;20040;-82
2022/01/08 10:54:08;;;;;;;17.75;7.93;;;;;;;4.27;100.00;100085.69;5234277;28;20051;-81
2022/01/08 10:56:40;;;;;;;17.10;7.72;;;;;;;4.49;100.00;100079.22;5236016;28;20047;-81
2022/01/08 10:59:11;;;;;;;15.88;7.57;;;;;;;4.59;100.00;100084.19;5221996;28;20031;-82
2022/01/08 11:01:43;;;;;;;18.98;7.63;;;;;;;4.49;100.00;100076.63;5246981;28;20025;-82
2022/01/08 11:04:17;;;;;;;14.88;7.45;;;;;;;4.50;100.00;100075.75;5247630;28;20024;-82
2022/01/08 11:06:49;;;;;;;18.35;7.70;;;;;;;4.36;100.00;100073.44;5249456;28;20143;-82
2022/01/08 11:09:20;;;;;;;16.65;8.00;;;;;;;4.26;100.00;100068.47;5258059;28;20114;-82
2022/01/08 11:11:52;;;;;;;13.32;6.85;;;;;;;4.33;100.00;100060.53;5247895;28;20056;-82
2022/01/08 11:15:22;;;;;;;17.00;7.55;;;;;;;4.39;100.00;100070.78;5246736;28;20032;-82
2022/01/08 11:17:38;;;;;;;15.48;7.05;;;;;;;4.48;100.00;100065.44;5247006;28;20508;-82
2022/01/08 11:20:13;;;;;;;16.20;7.78;;;;;;;4.51;100.00;100062.81;5253636;28;20186;-82
2022/01/08 11:22:46;;;;;;;17.55;7.20;;;;;;;4.36;100.00;100063.09;5231756;28;20037;-82
2022/01/08 11:25:38;;;;;;;16.38;7.85;;;;;;;4.51;100.00;100059.34;5229006;28;20085;-82
2022/01/08 11:28:12;;;;;;;14.63;7.10;;;;;;;4.57;100.00;100049.72;5235817;28;20484;-82
2022/01/08 11:30:49;;;;;;;13.77;6.82;;;;;;;4.56;100.00;100053.22;5235794;28;20081;-82
2022/01/08 11:33:25;;;;;;;17.27;7.20;;;;;;;4.64;100.00;100050.47;5248112;28;20052;-81
2022/01/08 11:35:57;;;;;;;15.25;7.10;;;;;;;4.62;100.00;100045.31;5250339;28;20139;-81
2022/01/08 11:38:29;;;;;;;16.15;7.47;;;;;;;4.53;100.00;100045.50;5225753;28;20537;-81
2022/01/08 11:40:59;;;;;;;17.77;7.57;;;;;;;4.45;100.00;100031.84;5225441;28;20025;-81
2022/01/08 11:43:30;;;;;;;25.17;7.40;;;;;;;4.39;100.00;100034.56;5241991;28;20120;-81
2022/01/08 11:46:03;;;;;;;17.55;7.38;;;;;;;4.63;100.00;100038.41;5224283;28;20484;-81
2022/01/08 11:48:43;;;;;;;19.45;7.10;;;;;;;4.65;100.00;100027.13;5249303;28;20027;-82
2022/01/08 11:51:17;;;;;;;17.45;7.28;;;;;;;4.37;100.00;100031.16;5233829;28;20022;-82
2022/01/08 11:53:58;;;;;;;16.42;7.43;;;;;;;4.43;100.00;100020.69;5236579;28;20040;-82
2022/01/08 11:56:38;;;;;;;15.30;7.07;;;;;;;4.32;100.00;100012.28;5238046;28;20184;-82